My Meet Scores
Reese Lackey, St. Charles Gymnastics Academy - MyMeetScores.com
Top100 | Top Teams | Upcoming Meets | Completed Meets | Latest | Add Scores | Help| Support | Bookmark and Share

Reese Lackey, St. Charles Gymnastics Academy
Personal Bests
LevelVault BarsBeamFloorAA
39.2509.150 8.8258.85036.050
49.2009.625 9.7009.62537.800
69.8009.675 9.7509.87538.525
79.6759.800 9.7759.85038.425
89.4259.525 9.7009.67538.100
Scores on America's Top 100as of 10.20.2021
Year Level Vault Bars Beam Floor AA
2018 69.8009.87538.525
2019 79.6759.850
2020 89.700

Click here to view our exclusive Top 100 Collection
Meet Scores
Date Meet Team Session Level Division Vault Bars Beam Floor AA
2021-01-21 King Arthur Invitational St. Charles Gymnastics Academy 3 8 CH 9.400 2 9.450 1 9.525 1 9.525 1 37.900 1
2020-02-28 MEGA Spring Invite 2020 St. Charles Gymnastics Academy 5 8 Junior A 9.200 4 9.475 3T 9.425 1 9.600 1 37.700 2
2020-02-21 Great Western Invitational - Women's St. Charles Gymnastics Academy 12 8 Filly 8.950 10 9.250 5 9.425 4T 9.425 1 37.050 3
2020-02-07 SCGA Classic St. Charles Gymnastics Academy 3 8 child 9.425 1 9.500 1 8.650 3 9.425 1 37.000 1
2020-01-24 Sand Dollar Invitational 2020 St. Charles Gymnastics Academy B03 8 Jr B 8.850 6 9.300 5 9.425 1T 9.375 3 36.950 4
2020-01-10 St Jude Benefit Meet St. Charles Gymnastics Academy 9C 8 Jr A 9.200 7T 9.525 6 9.700 2 9.675 1 38.100 4
2019-12-13 2019 St Nick St. Charles Gymnastics Academy 3 8 JrA 9.175 4 9.400 2 9.400 1 9.575 1 37.550 1
2019-03-29 Illinois Level 7 & 8 State Meet St. Charles Gymnastics Academy 6 7 Jr C 9.675 1 9.425 6 9.625 2 9.700 1 38.425 1
2019-02-15 Women's Midwest Open St. Charles Gymnastics Academy 04 7 Junior A 8.950 4 9.800 1 9.025 9T 9.600 1 37.375 1
2019-01-25 Metroplex Challenge St. Charles Gymnastics Academy W06 7 JrA 9.250 2 9.675 3T 9.200 4 9.600 3T 37.725 2
2019-01-11 St Jude Benefit Meet St. Charles Gymnastics Academy 4B 7 Jr A 9.125 1 9.750 1 9.675 1 9.850 1 38.400 1
2018-12-07 St. Nick Invite 2018 St. Charles Gymnastics Academy 6B 7 JrA 9.250 2 9.400 6 9.775 1 9.675 2 38.100 1
2018-03-16 2018 Illinois Level 6, 9, 10 State Championships St. Charles Gymnastics Academy 08 6 Ch B 9.650 1 9.000 13T 9.500 2T 9.875 1 38.025 2T
2018-02-23 Kinetic Classic St. Charles Gymnastics Academy 9 6 Younger 9.800 1 9.675 2 9.575 3T 9.475 17T 38.525 2
2018-02-16 Big Classic St. Charles Gymnastics Academy 1A 6 Junior A 9.525 1 9.500 1 9.750 1 9.600 1 38.375 1
2018-01-19 2018 SCEGA California Classic St. Charles Gymnastics Academy 1O 6 Child B 9.475 2 9.675 1 9.475 3 9.700 1 38.325 1
2018-01-12 St Jude Benefit Meet St. Charles Gymnastics Academy 4C 6 JrA 9.550 1 9.475 1 9.500 2 9.500 1 38.025 1
2017-12-14 2017 Women's Hawaiian Pineapple Classic St. Charles Gymnastics Academy 9A 6 Ages10U 9.475 1 9.450 1 9.475 4 9.725 3 38.125 1
2017-12-01 Ultimate Wish Classic St. Charles Gymnastics Academy 9 6 CH 9.475 1 9.500 1 9.125 4 9.200 14T 37.300 2
2017-11-17 SCGA Classic St. Charles Gymnastics Academy 3 6 JrA 9.600 1 9.500 1 8.625 9 9.775 1 37.500 1
2017-03-10 2017 Illinois Level 4 State Championships St. Charles Gymnastics Academy 2 4 Ch E 9.150 6T 9.600 1 9.625 1 9.375 1 37.750 1
2017-02-24 Kinetic Classic St. Charles Gymnastics Academy 5,6 4 All Ages 9.200 15T 9.575 8T 9.450 11T 9.250 27T 37.475 4
2017-02-10 IGI Chicago Style Gymnastics Meet St. Charles Gymnastics Academy 621L 4 JrA 8.850 3 9.625 1 8.900 12 9.175 6 36.550 4
2017-01-20 2017 Bravo Classic St. Charles Gymnastics Academy 07B 4 9yrs 9.100 1 9.525 5 9.550 2 9.625 2 37.800 1
2017-01-13 St Jude Benefit Meet St. Charles Gymnastics Academy 3A 4 Jr B 8.350 6T 9.625 1 9.700 1 9.200 1 36.875 1
2016-12-15 2016 Hawaiian Pineapple Sanction St. Charles Gymnastics Academy 9A 4 Age 9 9.100 4 9.400 2T 9.600 2 9.575 2 37.675 2
2016-12-02 Ultimate Wish Classic St. Charles Gymnastics Academy 13 4 Jr A 8.950 2 9.575 1 8.875 9 9.275 3 36.675 1
2016-03-10 2016 Illinois Level 4 State Meet St. Charles Gymnastics Academy All 4 Child-A 9.125 4 8.100 22 9.150 10 8.850 16 35.225 15
2016-01-22 King Arthur Invitational St. Charles Gymnastics Academy S12 4 Jr.A 8.950 3 8.900 6 8.725 11 9.600 1 36.175 4
2016-01-08 St Jude Benefit Meet St. Charles Gymnastics Academy 4A 4 Jr A 9.025 3T 9.075 7 9.375 4 8.925 6 36.400 4
2015-12-04 2015 Ultimate Wish Classic St. Charles Gymnastics Academy 7 4 All 9.150 6 9.125 19 8.900 23 9.400 7 36.575 8
2015-02-20 Midwest Open 2015 St. Charles Gymnastics Academy 3A 3 6-7 9.225 4 9.150 4 8.825 6 8.850 7 36.050 5
2014-11-21 SCGA Classic St. Charles Gymnastics Academy 1 3 7 9.250 3T 8.900 6 6.400 18 8.850 4 33.400 12
Get your scores on
a t-shirt, pin, or hoodie